createdAt,value
2019-05-17T00:00:39.190Z,10.53
2019-05-17T00:02:17.330Z,10.43
2019-05-17T00:03:52.717Z,10.30
2019-05-17T00:05:30.158Z,9.90
2019-05-17T00:07:07.813Z,10.63
2019-05-17T00:08:43.372Z,11.63
2019-05-17T00:10:19.634Z,11.10
2019-05-17T00:11:56.850Z,10.00
2019-05-17T00:13:33.350Z,9.80
2019-05-17T00:15:09.177Z,10.20
2019-05-17T00:16:46.946Z,12.00
2019-05-17T00:18:22.589Z,11.33
2019-05-17T00:19:58.836Z,11.30
2019-05-17T00:21:36.784Z,12.97
2019-05-17T00:23:12.362Z,10.38
2019-05-17T00:24:47.953Z,10.20
2019-05-17T00:26:24.213Z,10.43
2019-05-17T00:27:59.758Z,9.73
2019-05-17T00:29:37.112Z,9.00
2019-05-17T00:31:12.827Z,9.70
2019-05-17T00:32:49.364Z,9.43
2019-05-17T00:34:27.069Z,10.45
2019-05-17T00:36:03.212Z,10.40
2019-05-17T00:37:38.785Z,10.10
2019-05-17T00:39:16.710Z,9.90
2019-05-17T00:40:52.410Z,9.25
2019-05-17T00:42:28.937Z,9.80
2019-05-17T00:44:06.315Z,9.23
2019-05-17T00:45:42.907Z,9.15
2019-05-17T00:47:18.432Z,9.43
2019-05-17T00:48:57.135Z,9.47
2019-05-17T00:50:31.942Z,9.73
2019-05-17T00:52:08.223Z,9.23
2019-05-17T00:53:43.740Z,9.73
2019-05-17T00:55:20.131Z,10.65
2019-05-17T00:56:56.689Z,9.80
2019-05-17T00:58:33.104Z,11.12
2019-05-17T01:00:09.637Z,9.77
2019-05-17T01:01:46.841Z,8.85
2019-05-17T01:03:22.849Z,10.23
2019-05-17T01:04:59.098Z,9.00
2019-05-17T01:06:34.637Z,9.43
2019-05-17T01:08:11.009Z,11.23
2019-05-17T01:09:47.229Z,10.55
2019-05-17T01:11:23.696Z,9.63
2019-05-17T01:12:59.234Z,11.20
2019-05-17T01:14:38.422Z,9.03
2019-05-17T01:16:13.951Z,9.80
2019-05-17T01:17:50.216Z,9.83
2019-05-17T01:19:27.637Z,9.15
2019-05-17T01:21:06.431Z,10.37
2019-05-17T01:22:41.786Z,10.40
2019-05-17T01:24:18.064Z,11.73
2019-05-17T01:25:53.633Z,12.15
2019-05-17T01:27:30.147Z,10.27
2019-05-17T01:29:06.709Z,11.47
2019-05-17T01:30:43.221Z,11.33
2019-05-17T01:32:18.762Z,10.48
2019-05-17T01:33:56.530Z,10.72
2019-05-17T01:35:32.281Z,11.13
2019-05-17T01:37:08.610Z,11.43
2019-05-17T01:38:46.760Z,10.83
2019-05-17T01:40:22.830Z,11.40
2019-05-17T01:41:58.507Z,10.97
2019-05-17T01:43:36.769Z,11.23
2019-05-17T01:45:12.248Z,12.57
2019-05-17T01:46:48.832Z,12.50
2019-05-17T01:48:24.376Z,13.37
2019-05-17T01:50:00.661Z,14.97
2019-05-17T01:51:37.034Z,16.23
2019-05-17T01:53:13.453Z,15.15
2019-05-17T01:54:49.062Z,15.68
2019-05-17T01:56:26.290Z,15.88
2019-05-17T01:58:02.048Z,17.43
2019-05-17T01:59:38.800Z,14.90
2019-05-17T02:01:16.817Z,13.90
2019-05-17T02:02:53.290Z,14.45
2019-05-17T02:04:29.096Z,14.80
2019-05-17T02:06:07.441Z,14.20
2019-05-17T02:07:42.837Z,13.72
2019-05-17T02:09:33.812Z,14.07
2019-05-17T02:10:57.482Z,13.67
2019-05-17T02:12:33.798Z,14.67
2019-05-17T02:14:09.592Z,14.03
2019-05-17T02:15:46.992Z,15.30
2019-05-17T02:17:22.947Z,15.83
2019-05-17T02:18:59.234Z,13.97
2019-05-17T02:20:36.967Z,13.90
2019-05-17T02:22:13.013Z,14.20
2019-05-17T02:23:48.561Z,13.88
2019-05-17T02:25:27.103Z,13.23
2019-05-17T02:27:02.131Z,13.10
2019-05-17T02:28:41.328Z,12.85
2019-05-17T02:30:17.478Z,13.57
2019-05-17T02:31:54.486Z,14.60
2019-05-17T02:33:33.164Z,12.43
2019-05-17T02:35:08.871Z,13.17
2019-05-17T02:36:44.387Z,12.25
2019-05-17T02:38:22.441Z,13.60
2019-05-17T02:40:02.917Z,14.87
2019-05-17T02:41:35.918Z,13.70
2019-05-17T02:43:13.266Z,14.20
2019-05-17T02:44:52.927Z,13.00
2019-05-17T02:46:26.873Z,12.47
2019-05-17T02:48:04.172Z,15.27
2019-05-17T02:49:42.273Z,15.90
2019-05-17T02:51:18.016Z,14.77
2019-05-17T02:52:53.828Z,14.43
2019-05-17T02:54:32.792Z,15.50
2019-05-17T02:56:07.605Z,15.87
2019-05-17T02:57:44.006Z,15.07
2019-05-17T02:59:19.540Z,14.18
2019-05-17T03:00:55.804Z,14.83
2019-05-17T03:02:34.154Z,13.33
2019-05-17T03:04:12.790Z,15.97
2019-05-17T03:05:46.808Z,13.75
2019-05-17T03:07:23.437Z,13.70
2019-05-17T03:08:59.213Z,14.00
2019-05-17T03:10:35.542Z,12.87
2019-05-17T03:12:12.910Z,13.75
2019-05-17T03:13:52.349Z,13.80
2019-05-17T03:15:27.193Z,13.67
2019-05-17T03:17:03.755Z,14.03
2019-05-17T03:18:39.269Z,12.83
2019-05-17T03:20:16.767Z,13.53
2019-05-17T03:21:53.550Z,11.97
2019-05-17T03:23:32.793Z,14.33
2019-05-17T03:25:08.342Z,16.87
2019-05-17T03:26:44.617Z,14.93
2019-05-17T03:28:23.679Z,13.38
2019-05-17T03:29:58.396Z,13.45
2019-05-17T03:31:41.981Z,13.70
2019-05-17T03:33:16.036Z,13.33
2019-05-17T03:34:55.861Z,14.78
2019-05-17T03:36:28.786Z,14.93
2019-05-17T03:38:04.385Z,14.30
2019-05-17T03:39:42.719Z,15.60
2019-05-17T03:41:23.733Z,13.93
2019-05-17T03:42:55.859Z,13.17
2019-05-17T03:44:33.262Z,14.23
2019-05-17T03:46:09.358Z,15.07
2019-05-17T03:47:45.067Z,15.07
2019-05-17T03:49:22.363Z,16.40
2019-05-17T03:50:58.145Z,15.07
2019-05-17T03:52:34.425Z,14.33
2019-05-17T03:54:13.828Z,13.73
2019-05-17T03:55:53.757Z,14.07
2019-05-17T03:57:27.906Z,15.60
2019-05-17T03:59:04.264Z,15.25
2019-05-17T04:00:42.613Z,14.33
2019-05-17T04:02:17.877Z,13.73
2019-05-17T04:03:53.406Z,12.63
2019-05-17T04:05:33.080Z,15.03
2019-05-17T04:07:06.982Z,15.55
2019-05-17T04:08:43.329Z,15.57
2019-05-17T04:10:22.801Z,16.05
2019-05-17T04:11:58.051Z,15.33
2019-05-17T04:13:33.885Z,16.05
2019-05-17T04:15:13.381Z,15.93
2019-05-17T04:16:47.853Z,16.03
2019-05-17T04:18:24.266Z,16.00
2019-05-17T04:20:02.942Z,16.67
2019-05-17T04:21:38.752Z,15.57
2019-05-17T04:23:14.715Z,16.97
2019-05-17T04:24:52.552Z,14.77
2019-05-17T04:26:28.229Z,15.93
2019-05-17T04:28:04.765Z,15.08
2019-05-17T04:29:42.553Z,13.77
2019-05-17T04:31:18.348Z,14.00
2019-05-17T04:32:54.192Z,13.93
2019-05-17T04:34:33.558Z,14.40
2019-05-17T04:36:07.690Z,15.03
2019-05-17T04:37:45.126Z,13.78
2019-05-17T04:39:22.632Z,13.53
2019-05-17T04:40:59.055Z,13.30
2019-05-17T04:42:34.596Z,16.57
2019-05-17T04:44:12.822Z,13.20
2019-05-17T04:45:48.069Z,13.90
2019-05-17T04:47:24.600Z,13.57
2019-05-17T04:49:02.814Z,12.43
2019-05-17T04:50:38.102Z,13.53
2019-05-17T04:52:14.019Z,13.57
2019-05-17T04:53:52.994Z,14.97
2019-05-17T04:55:28.745Z,13.73
2019-05-17T04:57:05.020Z,13.62
2019-05-17T04:58:42.951Z,12.67
2019-05-17T05:00:21.934Z,14.17
2019-05-17T05:01:57.251Z,13.98
2019-05-17T05:03:33.534Z,13.80
2019-05-17T05:05:09.205Z,15.23
2019-05-17T05:06:46.045Z,12.50
2019-05-17T05:08:22.427Z,13.50
2019-05-17T05:09:58.899Z,12.90
2019-05-17T05:11:50.361Z,14.25
2019-05-17T05:13:13.397Z,15.80
2019-05-17T05:14:52.303Z,12.30
2019-05-17T05:16:28.733Z,15.23
2019-05-17T05:18:04.266Z,13.90
2019-05-17T05:19:42.268Z,14.03
2019-05-17T05:21:18.030Z,15.77
2019-05-17T05:22:54.297Z,14.13
2019-05-17T05:24:31.528Z,17.92
2019-05-17T05:26:07.904Z,14.43
2019-05-17T05:27:43.694Z,15.73
2019-05-17T05:29:21.635Z,14.20
2019-05-17T05:30:58.163Z,13.98
2019-05-17T05:32:34.462Z,12.50
2019-05-17T05:34:12.150Z,13.93
2019-05-17T05:35:47.963Z,12.90
2019-05-17T05:37:33.803Z,12.97
2019-05-17T05:39:11.792Z,13.05
2019-05-17T05:40:47.898Z,15.57
2019-05-17T05:42:24.456Z,17.87
2019-05-17T05:44:01.876Z,17.07
2019-05-17T05:45:38.212Z,15.13
2019-05-17T05:47:13.742Z,18.00
2019-05-17T05:48:52.230Z,17.90
2019-05-17T05:50:27.493Z,18.07
2019-05-17T05:52:05.159Z,15.98
2019-05-17T05:53:41.914Z,16.10
2019-05-17T05:55:18.651Z,17.40
2019-05-17T05:56:54.205Z,16.33
2019-05-17T05:58:32.198Z,17.67
2019-05-17T06:00:12.708Z,16.90
2019-05-17T06:01:49.152Z,16.80
2019-05-17T06:03:24.703Z,17.93
2019-05-17T06:05:01.978Z,17.90
2019-05-17T06:06:38.515Z,16.85
2019-05-17T06:08:14.874Z,17.37
2019-05-17T06:09:51.776Z,17.33
2019-05-17T06:11:28.160Z,17.13
2019-05-17T06:13:03.714Z,16.10
2019-05-17T06:14:41.696Z,15.77
2019-05-17T06:16:17.351Z,16.03
2019-05-17T06:17:53.610Z,14.63
2019-05-17T06:19:31.403Z,13.97
2019-05-17T06:21:07.138Z,14.30
2019-05-17T06:22:43.076Z,12.95
2019-05-17T06:24:19.334Z,13.60
2019-05-17T06:25:54.843Z,14.73
2019-05-17T06:27:32.111Z,12.47
2019-05-17T06:29:07.812Z,13.95
2019-05-17T06:30:44.358Z,12.88
2019-05-17T06:32:22.797Z,13.00
2019-05-17T06:33:59.071Z,13.83
2019-05-17T06:35:34.655Z,13.28
2019-05-17T06:37:12.911Z,12.90
2019-05-17T06:38:48.197Z,13.33
2019-05-17T06:40:28.195Z,12.63
2019-05-17T06:42:03.723Z,11.93
2019-05-17T06:43:41.669Z,12.05
2019-05-17T06:45:17.757Z,12.67
2019-05-17T06:46:54.044Z,12.53
2019-05-17T06:48:31.604Z,15.67
2019-05-17T06:50:08.379Z,13.18
2019-05-17T06:51:43.937Z,13.65
2019-05-17T06:53:21.987Z,13.77
2019-05-17T06:54:58.398Z,13.13
2019-05-17T06:56:34.707Z,13.73
2019-05-17T06:58:11.779Z,14.18
2019-05-17T06:59:48.201Z,13.97
2019-05-17T07:01:23.738Z,13.03
2019-05-17T07:03:00.687Z,13.93
2019-05-17T07:04:36.425Z,13.90
2019-05-17T07:06:13.609Z,14.40
2019-05-17T07:07:49.875Z,13.62
2019-05-17T07:09:26.313Z,13.53
2019-05-17T07:11:01.840Z,14.43
2019-05-17T07:12:53.758Z,14.68
2019-05-17T07:14:15.346Z,13.70
2019-05-17T07:15:51.608Z,14.17
2019-05-17T07:17:27.410Z,13.73
2019-05-17T07:19:04.002Z,13.87
2019-05-17T07:20:39.870Z,15.13
2019-05-17T07:22:17.320Z,15.07
2019-05-17T07:23:53.835Z,15.07
2019-05-17T07:25:30.398Z,14.07
2019-05-17T07:27:06.299Z,15.48
2019-05-17T07:28:42.572Z,16.40
2019-05-17T07:30:19.483Z,16.10
2019-05-17T07:31:55.875Z,15.03
2019-05-17T07:33:31.810Z,15.72
2019-05-17T07:35:10.784Z,14.87
2019-05-17T07:36:46.296Z,16.48
2019-05-17T07:38:22.646Z,15.23
2019-05-17T07:40:04.538Z,14.80
2019-05-17T07:41:36.116Z,14.13
2019-05-17T07:43:14.679Z,14.45
2019-05-17T07:44:50.265Z,14.95
2019-05-17T07:46:25.795Z,14.83
2019-05-17T07:48:02.885Z,13.77
2019-05-17T07:49:40.446Z,14.23
2019-05-17T07:51:16.385Z,14.90
2019-05-17T07:52:51.930Z,14.23
2019-05-17T07:54:30.183Z,13.20
2019-05-17T07:56:05.430Z,14.37
2019-05-17T07:57:41.715Z,12.87
2019-05-17T07:59:17.228Z,12.80
2019-05-17T08:00:53.758Z,13.13
2019-05-17T08:02:30.824Z,12.67
2019-05-17T08:04:09.853Z,14.58
2019-05-17T08:05:44.578Z,12.37
2019-05-17T08:07:20.914Z,12.83
2019-05-17T08:08:56.460Z,12.60
2019-05-17T08:10:33.010Z,12.70
2019-05-17T08:12:11.056Z,11.45
2019-05-17T08:13:46.490Z,12.03
2019-05-17T08:15:22.026Z,12.00
2019-05-17T08:16:59.909Z,11.05
2019-05-17T08:18:35.505Z,11.15
2019-05-17T08:20:13.465Z,11.40
2019-05-17T08:21:50.216Z,10.58
2019-05-17T08:23:26.153Z,9.65
2019-05-17T08:25:02.840Z,9.22
2019-05-17T08:26:40.384Z,9.55
2019-05-17T08:28:16.194Z,9.85
2019-05-17T08:29:52.529Z,8.83
2019-05-17T08:31:29.525Z,9.15
2019-05-17T08:33:05.880Z,8.63
2019-05-17T08:34:41.400Z,8.37
2019-05-17T08:36:19.979Z,8.77
2019-05-17T08:37:54.945Z,9.03
2019-05-17T08:39:31.200Z,9.15
2019-05-17T08:41:06.726Z,9.15
2019-05-17T08:42:43.258Z,9.18
2019-05-17T08:44:19.225Z,8.80
2019-05-17T08:45:58.426Z,8.03
2019-05-17T08:47:33.162Z,7.60
2019-05-17T08:49:09.851Z,8.23
2019-05-17T08:50:45.536Z,8.18
2019-05-17T08:52:21.790Z,8.35
2019-05-17T08:54:00.011Z,7.90
2019-05-17T08:55:35.559Z,7.90
2019-05-17T08:57:11.348Z,7.72
2019-05-17T08:58:49.788Z,7.70
2019-05-17T09:00:25.194Z,7.85
2019-05-17T09:02:01.534Z,7.95
2019-05-17T09:03:37.071Z,7.75
2019-05-17T09:05:13.579Z,7.42
2019-05-17T09:06:50.455Z,7.22
2019-05-17T09:08:26.865Z,7.37
2019-05-17T09:10:04.124Z,7.60
2019-05-17T09:11:40.627Z,7.50
2019-05-17T09:13:16.177Z,7.63
2019-05-17T09:14:52.430Z,7.33
2019-05-17T09:16:30.563Z,7.78
2019-05-17T09:18:06.002Z,7.55
2019-05-17T09:19:41.522Z,7.17
2019-05-17T09:21:17.847Z,6.47
2019-05-17T09:22:53.365Z,6.58
2019-05-17T09:24:29.985Z,6.50
2019-05-17T09:26:05.759Z,7.00
2019-05-17T09:27:42.364Z,5.92
2019-05-17T09:29:20.006Z,6.20
2019-05-17T09:30:55.961Z,6.10
2019-05-17T09:32:31.476Z,5.78
2019-05-17T09:34:09.630Z,5.58
2019-05-17T09:35:44.957Z,6.37
2019-05-17T09:37:22.524Z,6.37
2019-05-17T09:39:00.092Z,5.90
2019-05-17T09:40:36.295Z,5.85
2019-05-17T09:42:11.848Z,5.97
2019-05-17T09:43:51.254Z,5.20
2019-05-17T09:45:25.498Z,6.12
2019-05-17T09:47:01.791Z,5.47
2019-05-17T09:48:39.500Z,5.97
2019-05-17T09:50:15.790Z,6.03
2019-05-17T09:51:51.288Z,6.47
2019-05-17T09:53:30.481Z,5.90
2019-05-17T09:55:06.388Z,7.35
2019-05-17T09:56:42.607Z,5.65
2019-05-17T09:58:21.414Z,5.40
2019-05-17T09:59:56.192Z,4.78
2019-05-17T10:01:31.936Z,5.47
2019-05-17T10:03:09.789Z,5.37
2019-05-17T10:04:45.630Z,5.33
2019-05-17T10:06:21.886Z,5.60
2019-05-17T10:07:59.875Z,5.45
2019-05-17T10:09:35.653Z,5.70
2019-05-17T10:11:12.117Z,5.62
2019-05-17T10:12:49.669Z,5.10
2019-05-17T10:14:29.069Z,5.42
2019-05-17T10:16:03.705Z,5.12
2019-05-17T10:17:39.317Z,5.18
2019-05-17T10:19:15.602Z,5.65
2019-05-17T10:20:51.139Z,5.37
2019-05-17T10:22:30.367Z,5.20
2019-05-17T10:24:05.834Z,5.40
2019-05-17T10:25:42.105Z,6.22
2019-05-17T10:27:19.507Z,5.37
2019-05-17T10:28:55.577Z,4.67
2019-05-17T10:30:31.375Z,6.70
2019-05-17T10:32:10.479Z,4.65
2019-05-17T10:33:49.370Z,4.92
2019-05-17T10:35:25.107Z,4.97
2019-05-17T10:37:00.608Z,4.95
2019-05-17T10:38:39.441Z,4.80
2019-05-17T10:40:14.861Z,5.28
2019-05-17T10:41:51.183Z,5.53
2019-05-17T10:43:26.711Z,5.60
2019-05-17T10:45:06.265Z,4.97
2019-05-17T10:46:41.783Z,4.50
2019-05-17T10:48:21.028Z,4.60
2019-05-17T10:49:55.526Z,4.90
2019-05-17T10:51:31.781Z,4.83
2019-05-17T10:53:09.764Z,5.17
2019-05-17T10:54:45.280Z,5.07
2019-05-17T10:56:23.485Z,4.83
2019-05-17T10:58:00.450Z,5.50
2019-05-17T10:59:36.085Z,5.00
2019-05-17T11:01:12.444Z,5.28
2019-05-17T11:02:47.948Z,5.08
2019-05-17T11:04:25.907Z,5.30
2019-05-17T11:06:02.448Z,5.22
2019-05-17T11:07:38.716Z,5.87
2019-05-17T11:09:14.220Z,5.50
2019-05-17T11:10:50.852Z,4.90
2019-05-17T11:12:26.380Z,4.95
2019-05-17T11:14:02.931Z,5.15
2019-05-17T11:15:38.723Z,4.75
2019-05-17T11:17:15.012Z,5.35
2019-05-17T11:18:50.519Z,5.07
2019-05-17T11:20:26.919Z,5.00
2019-05-17T11:22:02.445Z,5.37
2019-05-17T11:23:38.771Z,4.93
2019-05-17T11:25:14.608Z,5.22
2019-05-17T11:26:51.285Z,5.60
2019-05-17T11:28:27.084Z,5.60
2019-05-17T11:30:03.336Z,5.70
2019-05-17T11:31:38.937Z,5.72
2019-05-17T11:33:15.208Z,5.47
2019-05-17T11:34:50.733Z,5.90
2019-05-17T11:36:27.005Z,5.97
2019-05-17T11:38:02.584Z,5.78
2019-05-17T11:39:38.842Z,6.05
2019-05-17T11:41:21.086Z,5.40
2019-05-17T11:42:52.627Z,6.15
2019-05-17T11:44:28.158Z,5.77
2019-05-17T11:46:04.443Z,6.08
2019-05-17T11:47:41.194Z,5.60
2019-05-17T11:49:17.448Z,5.30
2019-05-17T11:50:55.155Z,5.60
2019-05-17T11:53:08.139Z,6.50
2019-05-17T11:54:36.377Z,5.22
2019-05-17T11:56:12.639Z,6.30
2019-05-17T11:57:48.161Z,5.85
2019-05-17T11:59:24.411Z,5.87
2019-05-17T12:01:00.236Z,6.55
2019-05-17T12:02:36.456Z,6.45
2019-05-17T12:04:12.004Z,6.58
2019-05-17T12:05:48.265Z,7.10
2019-05-17T12:07:23.825Z,6.90
2019-05-17T12:09:05.230Z,6.60
2019-05-17T12:10:42.512Z,8.60
2019-05-17T12:12:18.072Z,6.53
2019-05-17T12:13:54.397Z,7.07
2019-05-17T12:15:43.511Z,7.23
2019-05-17T12:17:08.035Z,6.70
2019-05-17T12:18:43.582Z,7.22
2019-05-17T12:20:21.720Z,7.70
2019-05-17T12:21:57.240Z,7.17
2019-05-17T12:23:33.484Z,7.75
2019-05-17T12:25:10.158Z,7.78
2019-05-17T12:26:47.623Z,6.70
2019-05-17T12:28:23.279Z,6.70
2019-05-17T12:29:59.523Z,7.07
2019-05-17T12:31:35.647Z,7.12
2019-05-17T12:33:12.853Z,7.60
2019-05-17T12:34:48.446Z,7.55
2019-05-17T12:36:25.287Z,7.25
2019-05-17T12:38:00.822Z,6.87
2019-05-17T12:39:37.142Z,7.08
2019-05-17T12:41:12.698Z,6.70
2019-05-17T12:42:50.567Z,7.04
2019-05-17T12:44:26.201Z,6.47
2019-05-17T12:46:02.494Z,7.03
2019-05-17T12:47:38.086Z,7.30
2019-05-17T12:49:14.428Z,7.28
2019-05-17T12:50:50.047Z,7.10
2019-05-17T12:52:26.364Z,6.67
2019-05-17T12:54:03.474Z,6.65
2019-05-17T12:55:39.792Z,7.55
2019-05-17T12:57:15.332Z,8.00
2019-05-17T12:58:52.613Z,7.40
2019-05-17T13:00:28.202Z,8.10
2019-05-17T13:02:04.452Z,7.08
2019-05-17T13:03:39.957Z,7.30
2019-05-17T13:05:17.852Z,8.40
2019-05-17T13:06:53.458Z,7.30
2019-05-17T13:08:29.717Z,7.10
2019-05-17T13:10:07.154Z,7.78
2019-05-17T13:11:43.534Z,8.08
2019-05-17T13:13:19.052Z,8.00
2019-05-17T13:14:56.233Z,7.95
2019-05-17T13:16:31.774Z,8.13
2019-05-17T13:18:08.312Z,7.65
2019-05-17T13:19:43.817Z,8.08
2019-05-17T13:21:20.120Z,7.50
2019-05-17T13:22:55.631Z,8.15
2019-05-17T13:24:31.892Z,8.25
2019-05-17T13:26:07.416Z,8.20
2019-05-17T13:27:43.932Z,8.10
2019-05-17T13:29:19.524Z,7.65
2019-05-17T13:30:55.782Z,8.10
2019-05-17T13:32:31.320Z,10.72
2019-05-17T13:34:09.294Z,8.90
2019-05-17T13:35:45.090Z,9.13
2019-05-17T13:37:21.329Z,7.65
2019-05-17T13:38:56.865Z,8.28
2019-05-17T13:40:39.322Z,8.48
2019-05-17T13:42:12.941Z,8.96
2019-05-17T13:43:50.289Z,8.70
2019-05-17T13:45:26.944Z,8.40
2019-05-17T13:47:03.231Z,8.40
2019-05-17T13:48:38.769Z,8.65
2019-05-17T13:50:16.571Z,8.18
2019-05-17T13:51:52.105Z,8.27
2019-05-17T13:53:28.849Z,8.05
2019-05-17T13:55:06.759Z,8.20
2019-05-17T13:56:43.870Z,8.70
2019-05-17T13:58:19.410Z,8.75
2019-05-17T13:59:55.695Z,9.27
2019-05-17T14:01:31.331Z,8.38
2019-05-17T14:03:07.571Z,8.25
2019-05-17T14:04:43.836Z,9.36
2019-05-17T14:06:20.229Z,8.60
2019-05-17T14:07:56.906Z,9.83
2019-05-17T14:09:33.170Z,9.88
2019-05-17T14:11:08.723Z,9.18
2019-05-17T14:12:45.230Z,9.08
2019-05-17T14:14:20.887Z,9.40
2019-05-17T14:15:57.140Z,10.48
2019-05-17T14:17:32.666Z,9.83
2019-05-17T14:19:11.380Z,8.60
2019-05-17T14:20:46.573Z,8.88
2019-05-17T14:22:22.849Z,9.33
2019-05-17T14:23:58.472Z,8.93
2019-05-17T14:25:36.648Z,8.90
2019-05-17T14:27:12.146Z,9.85
2019-05-17T14:28:48.413Z,9.50
2019-05-17T14:30:24.132Z,9.20
2019-05-17T14:32:00.391Z,10.25
2019-05-17T14:33:37.714Z,9.15
2019-05-17T14:35:14.617Z,9.45
2019-05-17T14:36:50.422Z,9.58
2019-05-17T14:38:26.671Z,9.78
2019-05-17T14:40:08.489Z,9.05
2019-05-17T14:41:47.712Z,9.23
2019-05-17T14:43:23.223Z,10.05
2019-05-17T14:45:00.578Z,9.90
2019-05-17T14:46:36.170Z,9.93
2019-05-17T14:48:14.054Z,9.98
2019-05-17T14:49:51.249Z,10.18
2019-05-17T14:51:30.250Z,10.15
2019-05-17T14:53:06.000Z,9.10
2019-05-17T14:54:42.263Z,9.43
2019-05-17T14:56:17.809Z,10.67
2019-05-17T14:57:54.066Z,11.48
2019-05-17T14:59:29.645Z,9.65
2019-05-17T15:01:06.081Z,11.00
2019-05-17T15:02:41.632Z,11.00
2019-05-17T15:04:17.897Z,11.00
2019-05-17T15:05:53.500Z,9.55
2019-05-17T15:07:29.843Z,9.95
2019-05-17T15:09:07.439Z,10.60
2019-05-17T15:10:44.131Z,10.03
2019-05-17T15:12:28.405Z,9.35
2019-05-17T15:14:01.620Z,10.05
2019-05-17T15:15:37.211Z,9.60
2019-05-17T15:17:13.561Z,10.32
2019-05-17T15:18:50.497Z,9.60
2019-05-17T15:20:26.791Z,10.68
2019-05-17T15:22:02.470Z,10.53
2019-05-17T15:23:38.847Z,10.70
2019-05-17T15:25:14.394Z,10.48
2019-05-17T15:27:05.004Z,10.68
2019-05-17T15:28:28.613Z,10.88
2019-05-17T15:30:06.595Z,9.90
2019-05-17T15:31:42.153Z,11.55
2019-05-17T15:33:18.481Z,11.57
2019-05-17T15:34:54.031Z,10.50
2019-05-17T15:36:30.588Z,10.43
2019-05-17T15:38:06.158Z,10.67
2019-05-17T15:39:42.472Z,10.48
2019-05-17T15:41:18.287Z,10.98
2019-05-17T15:42:54.549Z,10.45
2019-05-17T15:44:30.139Z,10.75
2019-05-17T15:46:06.431Z,11.10
2019-05-17T15:47:42.043Z,10.18
2019-05-17T15:49:18.323Z,10.00
2019-05-17T15:50:57.321Z,9.88
2019-05-17T15:52:34.744Z,11.50
2019-05-17T15:54:10.271Z,10.40
2019-05-17T15:55:49.039Z,10.38
2019-05-17T15:57:24.678Z,10.08
2019-05-17T15:59:04.173Z,10.70
2019-05-17T16:00:40.457Z,9.83
2019-05-17T16:02:16.748Z,10.82
2019-05-17T16:03:52.545Z,10.55
2019-05-17T16:05:28.812Z,9.45
2019-05-17T16:07:06.037Z,9.53
2019-05-17T16:08:42.277Z,8.68
2019-05-17T16:10:18.404Z,8.88
2019-05-17T16:11:54.661Z,9.43
2019-05-17T16:13:30.194Z,8.50
2019-05-17T16:15:10.239Z,9.70
2019-05-17T16:16:46.499Z,9.30
2019-05-17T16:18:22.030Z,9.05
2019-05-17T16:19:58.288Z,9.13
2019-05-17T16:21:33.806Z,9.05
2019-05-17T16:23:10.062Z,8.70
2019-05-17T16:24:45.594Z,8.65
2019-05-17T16:26:23.092Z,9.63
2019-05-17T16:27:58.691Z,8.77
2019-05-17T16:29:35.951Z,9.28
2019-05-17T16:31:13.149Z,9.58
2019-05-17T16:32:50.483Z,8.78
2019-05-17T16:34:26.104Z,9.58
2019-05-17T16:36:02.463Z,8.35
2019-05-17T16:37:38.254Z,8.43
2019-05-17T16:39:14.515Z,8.35
2019-05-17T16:40:50.059Z,8.28
2019-05-17T16:42:26.342Z,8.70
2019-05-17T16:44:03.554Z,8.93
2019-05-17T16:45:39.817Z,8.23
2019-05-17T16:47:15.348Z,8.50
2019-05-17T16:48:51.742Z,9.83
2019-05-17T16:50:27.302Z,7.72
2019-05-17T16:52:03.233Z,7.13
2019-05-17T16:53:39.007Z,8.28
2019-05-17T16:55:16.387Z,7.87
2019-05-17T16:56:53.224Z,7.48
2019-05-17T16:58:30.666Z,7.20
2019-05-17T17:00:34.372Z,7.53
2019-05-17T17:02:10.817Z,6.55
2019-05-17T17:03:48.048Z,7.12
2019-05-17T17:05:24.297Z,7.05
2019-05-17T17:06:59.830Z,6.72
2019-05-17T17:08:36.795Z,6.70
2019-05-17T17:10:12.651Z,6.15
2019-05-17T17:11:49.997Z,8.55
2019-05-17T17:13:33.253Z,5.90
2019-05-17T17:15:07.564Z,6.34
2019-05-17T17:16:47.189Z,7.40
2019-05-17T17:18:29.111Z,6.42
2019-05-17T17:20:08.484Z,6.65
2019-05-17T17:21:47.023Z,6.30
2019-05-17T17:23:28.242Z,5.47
2019-05-17T17:25:15.476Z,5.65
2019-05-17T17:26:57.140Z,5.60
2019-05-17T17:28:36.296Z,5.67
2019-05-17T17:30:14.617Z,6.58
2019-05-17T17:31:54.099Z,5.25
2019-05-17T17:33:32.106Z,5.80
2019-05-17T17:35:12.970Z,5.33
2019-05-17T17:36:50.820Z,5.53
2019-05-17T17:38:27.015Z,6.37
2019-05-17T17:40:11.020Z,4.98
2019-05-17T17:41:52.992Z,6.00
2019-05-17T17:43:33.059Z,4.90
2019-05-17T17:45:13.027Z,5.67
2019-05-17T17:46:52.591Z,4.60
2019-05-17T17:48:29.754Z,4.40
2019-05-17T17:50:18.853Z,4.40
2019-05-17T17:51:59.814Z,6.50
2019-05-17T17:53:36.118Z,4.10
2019-05-17T17:55:12.035Z,4.12
2019-05-17T17:56:48.329Z,4.55
2019-05-17T17:58:23.911Z,4.20
2019-05-17T18:00:00.679Z,4.75
2019-05-17T18:01:36.141Z,4.30
2019-05-17T18:03:12.407Z,4.23
2019-05-17T18:04:47.949Z,4.50
2019-05-17T18:06:24.216Z,4.78
2019-05-17T18:08:00.369Z,4.84
2019-05-17T18:09:36.630Z,4.20
2019-05-17T18:11:12.149Z,4.30
2019-05-17T18:12:48.386Z,4.60
2019-05-17T18:14:23.932Z,4.28
2019-05-17T18:16:01.222Z,4.50
2019-05-17T18:17:39.281Z,4.45
2019-05-17T18:19:14.814Z,5.60
2019-05-17T18:20:50.356Z,4.03
2019-05-17T18:22:26.963Z,4.10
2019-05-17T18:24:02.496Z,3.98
2019-05-17T18:25:39.165Z,4.13
2019-05-17T18:27:15.025Z,3.93
2019-05-17T18:28:51.278Z,4.05
2019-05-17T18:30:27.688Z,4.90
2019-05-17T18:32:03.942Z,4.10
2019-05-17T18:33:39.724Z,4.70
2019-05-17T18:35:16.184Z,4.00
2019-05-17T18:36:51.719Z,4.23
2019-05-17T18:38:30.684Z,4.70
2019-05-17T18:40:07.755Z,4.58
2019-05-17T18:41:44.017Z,4.55
2019-05-17T18:43:19.534Z,4.83
2019-05-17T18:44:55.812Z,4.57
2019-05-17T18:46:31.339Z,5.57
2019-05-17T18:48:07.865Z,4.90
2019-05-17T18:49:43.396Z,5.72
2019-05-17T18:51:19.714Z,4.73
2019-05-17T18:52:55.366Z,4.27
2019-05-17T18:54:31.679Z,5.20
2019-05-17T18:56:07.196Z,4.97
2019-05-17T18:57:43.482Z,4.90
2019-05-17T18:59:18.994Z,4.77
2019-05-17T19:00:55.570Z,4.57
2019-05-17T19:02:32.381Z,4.03
2019-05-17T19:04:09.640Z,4.27
2019-05-17T19:05:45.492Z,5.93
2019-05-17T19:07:21.805Z,4.20
2019-05-17T19:08:57.335Z,4.80
2019-05-17T19:10:33.768Z,5.00
2019-05-17T19:12:09.294Z,5.07
2019-05-17T19:13:45.911Z,5.23
2019-05-17T19:15:22.124Z,5.23
2019-05-17T19:16:58.357Z,5.93
2019-05-17T19:18:35.522Z,5.60
2019-05-17T19:20:14.602Z,5.43
2019-05-17T19:21:50.417Z,4.60
2019-05-17T19:23:26.708Z,6.27
2019-05-17T19:25:02.273Z,5.53
2019-05-17T19:26:38.811Z,5.83
2019-05-17T19:28:14.398Z,5.73
2019-05-17T19:29:50.692Z,5.90
2019-05-17T19:31:26.218Z,6.00
2019-05-17T19:33:02.475Z,6.23
2019-05-17T19:34:37.989Z,5.83
2019-05-17T19:36:14.263Z,5.40
2019-05-17T19:37:49.786Z,5.53
2019-05-17T19:39:26.118Z,5.63
2019-05-17T19:41:01.911Z,5.10
2019-05-17T19:42:39.431Z,6.00
2019-05-17T19:44:15.109Z,6.22
2019-05-17T19:45:51.371Z,6.80
2019-05-17T19:47:26.951Z,6.90
2019-05-17T19:49:03.197Z,7.07
2019-05-17T19:50:38.738Z,7.07
2019-05-17T19:52:15.008Z,6.30
2019-05-17T19:53:50.520Z,5.78
2019-05-17T19:55:27.109Z,5.67
2019-05-17T19:57:02.897Z,5.57
2019-05-17T19:58:39.150Z,6.30
2019-05-17T20:00:16.294Z,5.63
2019-05-17T20:01:52.622Z,6.08
2019-05-17T20:03:28.158Z,7.70
2019-05-17T20:05:04.932Z,5.97
2019-05-17T20:06:40.443Z,6.43
2019-05-17T20:08:17.137Z,6.80
2019-05-17T20:09:53.118Z,5.58
2019-05-17T20:11:34.347Z,5.60
2019-05-17T20:13:07.887Z,5.20
2019-05-17T20:14:44.155Z,6.15
2019-05-17T20:16:19.676Z,6.40
2019-05-17T20:17:55.971Z,6.20
2019-05-17T20:19:31.506Z,8.90
2019-05-17T20:21:08.779Z,6.75
2019-05-17T20:22:44.597Z,7.45
2019-05-17T20:24:22.179Z,6.15
2019-05-17T20:25:58.126Z,6.97
2019-05-17T20:27:34.381Z,5.97
2019-05-17T20:29:11.057Z,5.83
2019-05-17T20:30:47.606Z,6.20
2019-05-17T20:32:23.261Z,6.53
2019-05-17T20:34:00.227Z,7.10
2019-05-17T20:35:37.064Z,8.87
2019-05-17T20:37:13.327Z,7.30
2019-05-17T20:38:48.846Z,7.35
2019-05-17T20:40:25.159Z,7.50
2019-05-17T20:42:02.570Z,7.40
2019-05-17T20:43:39.153Z,7.97
2019-05-17T20:45:15.080Z,7.58
2019-05-17T20:46:51.407Z,8.10
2019-05-17T20:48:26.892Z,7.47
2019-05-17T20:50:03.154Z,7.20
2019-05-17T20:51:38.966Z,8.50
2019-05-17T20:53:19.284Z,8.03
2019-05-17T20:54:53.881Z,7.20
2019-05-17T20:56:33.301Z,7.43
2019-05-17T20:58:08.717Z,8.60
2019-05-17T20:59:44.981Z,7.92
2019-05-17T21:01:20.932Z,7.87
2019-05-17T21:02:57.201Z,7.78
2019-05-17T21:04:32.746Z,7.93
2019-05-17T21:06:09.426Z,7.57
2019-05-17T21:07:45.206Z,7.30
2019-05-17T21:09:21.456Z,7.50